createdAt,value
2023-04-16T00:00:58.587Z,432.00
2023-04-16T00:01:58.729Z,433.00
2023-04-16T00:02:58.892Z,433.00
2023-04-16T00:03:59.092Z,432.00
2023-04-16T00:04:58.876Z,431.00
2023-04-16T00:05:58.875Z,431.00
2023-04-16T00:06:58.946Z,429.00
2023-04-16T00:07:58.992Z,431.00
2023-04-16T00:08:59.052Z,432.00
2023-04-16T00:09:59.071Z,433.00
2023-04-16T00:10:59.156Z,434.00
2023-04-16T00:11:59.182Z,432.00
2023-04-16T00:12:59.249Z,433.00
2023-04-16T00:13:59.286Z,434.00
2023-04-16T00:14:59.353Z,431.00
2023-04-16T00:15:59.449Z,430.00
2023-04-16T00:16:59.570Z,430.00
2023-04-16T00:17:59.600Z,430.00
2023-04-16T00:18:59.568Z,429.00
2023-04-16T00:19:59.581Z,430.00
2023-04-16T00:20:59.673Z,432.00
2023-04-16T00:21:59.669Z,430.00
2023-04-16T00:22:59.816Z,430.00
2023-04-16T00:23:59.804Z,429.00
2023-04-16T00:24:59.832Z,432.00
2023-04-16T00:26:00.018Z,432.00
2023-04-16T00:26:59.961Z,430.00
2023-04-16T00:27:59.953Z,432.00
2023-04-16T00:29:00.011Z,432.00
2023-04-16T00:29:59.987Z,434.00
2023-04-16T00:31:00.003Z,435.00
2023-04-16T00:32:00.014Z,436.00
2023-04-16T00:33:00.067Z,435.00
2023-04-16T00:33:59.971Z,435.00
2023-04-16T00:34:59.945Z,434.00
2023-04-16T00:35:59.957Z,436.00
2023-04-16T00:36:59.970Z,437.00
2023-04-16T00:37:59.947Z,437.00
2023-04-16T00:38:59.937Z,437.00
2023-04-16T00:39:59.937Z,435.00
2023-04-16T00:40:59.951Z,434.00
2023-04-16T00:42:00.071Z,434.00
2023-04-16T00:42:59.996Z,432.00
2023-04-16T00:43:59.981Z,434.00
2023-04-16T00:44:59.989Z,435.00
2023-04-16T00:46:00.017Z,434.00
2023-04-16T00:47:00.025Z,433.00
2023-04-16T00:48:00.536Z,431.00
2023-04-16T00:48:59.999Z,432.00
2023-04-16T00:49:59.963Z,432.00
2023-04-16T00:50:59.963Z,428.00
2023-04-16T00:51:59.962Z,429.00
2023-04-16T00:53:00.008Z,428.00
2023-04-16T00:54:00.040Z,427.00
2023-04-16T00:55:00.058Z,425.00
2023-04-16T00:56:00.075Z,427.00
2023-04-16T00:57:00.039Z,431.00
2023-04-16T00:58:00.050Z,432.00
2023-04-16T00:59:00.035Z,433.00
2023-04-16T01:00:00.036Z,434.00
2023-04-16T01:01:00.067Z,435.00
2023-04-16T01:02:00.169Z,438.00
2023-04-16T01:03:00.158Z,438.00
2023-04-16T01:04:00.147Z,436.00
2023-04-16T01:05:00.040Z,437.00
2023-04-16T01:06:00.010Z,434.00
2023-04-16T01:07:00.064Z,435.00
2023-04-16T01:08:00.041Z,438.00
2023-04-16T01:09:00.015Z,437.00
2023-04-16T01:10:00.027Z,436.00
2023-04-16T01:11:00.020Z,434.00
2023-04-16T01:12:00.068Z,436.00
2023-04-16T01:13:00.003Z,436.00
2023-04-16T01:14:00.025Z,433.00
2023-04-16T01:15:00.038Z,433.00
2023-04-16T01:16:00.092Z,431.00
2023-04-16T01:17:00.094Z,429.00
2023-04-16T01:18:00.172Z,429.00
2023-04-16T01:19:00.039Z,429.00
2023-04-16T01:20:00.098Z,429.00
2023-04-16T01:21:00.049Z,429.00
2023-04-16T01:22:00.539Z,429.00
2023-04-16T01:23:00.062Z,429.00
2023-04-16T01:24:00.057Z,428.00
2023-04-16T01:25:00.042Z,428.00
2023-04-16T01:26:00.024Z,427.00
2023-04-16T01:27:00.030Z,430.00
2023-04-16T01:28:00.020Z,431.00
2023-04-16T01:29:00.068Z,431.00
2023-04-16T01:30:00.120Z,428.00
2023-04-16T01:31:00.175Z,427.00
2023-04-16T01:32:00.279Z,428.00
2023-04-16T01:33:00.497Z,430.00
2023-04-16T01:34:00.311Z,430.00
2023-04-16T01:35:00.437Z,429.00
2023-04-16T01:36:00.425Z,428.00
2023-04-16T01:37:00.474Z,426.00
2023-04-16T01:38:00.512Z,423.00
2023-04-16T01:39:00.610Z,424.00
2023-04-16T01:40:00.660Z,425.00
2023-04-16T01:41:00.669Z,424.00
2023-04-16T01:42:00.752Z,426.00
2023-04-16T01:43:00.728Z,425.00
2023-04-16T01:44:00.749Z,425.00
2023-04-16T01:45:00.738Z,426.00
2023-04-16T01:46:00.738Z,425.00
2023-04-16T01:47:00.782Z,427.00
2023-04-16T01:48:00.765Z,429.00
2023-04-16T01:49:00.722Z,428.00
2023-04-16T01:50:00.741Z,426.00
2023-04-16T01:51:00.740Z,427.00
2023-04-16T01:52:00.806Z,431.00
2023-04-16T01:53:00.752Z,433.00
2023-04-16T01:54:00.768Z,435.00
2023-04-16T01:55:00.810Z,434.00
2023-04-16T01:56:00.860Z,436.00
2023-04-16T01:57:00.933Z,436.00
2023-04-16T01:58:00.939Z,435.00
2023-04-16T01:59:00.988Z,436.00
2023-04-16T02:00:00.999Z,436.00
2023-04-16T02:01:01.060Z,435.00
2023-04-16T02:02:01.146Z,438.00
2023-04-16T02:03:01.311Z,440.00
2023-04-16T02:04:01.133Z,441.00
2023-04-16T02:05:01.021Z,442.00
2023-04-16T02:06:01.000Z,440.00
2023-04-16T02:07:01.020Z,439.00
2023-04-16T02:08:01.028Z,438.00
2023-04-16T02:09:01.050Z,438.00
2023-04-16T02:10:01.041Z,440.00
2023-04-16T02:11:01.021Z,441.00
2023-04-16T02:12:01.033Z,440.00
2023-04-16T02:13:01.144Z,437.00
2023-04-16T02:14:01.150Z,435.00
2023-04-16T02:15:01.210Z,436.00
2023-04-16T02:16:01.305Z,436.00
2023-04-16T02:17:01.280Z,434.00
2023-04-16T02:18:01.409Z,432.00
2023-04-16T02:19:01.332Z,433.00
2023-04-16T02:20:01.411Z,432.00
2023-04-16T02:21:01.362Z,429.00
2023-04-16T02:22:01.344Z,429.00
2023-04-16T02:23:01.350Z,429.00
2023-04-16T02:24:01.436Z,428.00
2023-04-16T02:25:01.338Z,428.00
2023-04-16T02:26:01.376Z,430.00
2023-04-16T02:27:01.318Z,430.00
2023-04-16T02:28:01.430Z,429.00
2023-04-16T02:29:01.317Z,431.00
2023-04-16T02:30:01.378Z,431.00
2023-04-16T02:31:01.334Z,431.00
2023-04-16T02:32:01.413Z,431.00
2023-04-16T02:33:01.420Z,429.00
2023-04-16T02:34:01.412Z,428.00
2023-04-16T02:35:01.322Z,429.00
2023-04-16T02:36:01.361Z,430.00
2023-04-16T02:37:01.326Z,429.00
2023-04-16T02:38:01.341Z,426.00
2023-04-16T02:39:01.334Z,429.00
2023-04-16T02:40:01.378Z,430.00
2023-04-16T02:41:01.336Z,431.00
2023-04-16T02:42:01.342Z,433.00
2023-04-16T02:43:01.338Z,432.00
2023-04-16T02:44:01.337Z,432.00
2023-04-16T02:45:01.391Z,432.00
2023-04-16T02:46:01.391Z,433.00
2023-04-16T02:47:01.439Z,436.00
2023-04-16T02:48:01.363Z,436.00
2023-04-16T02:49:01.331Z,434.00
2023-04-16T02:50:01.349Z,434.00
2023-04-16T02:51:01.311Z,431.00
2023-04-16T02:52:01.323Z,432.00
2023-04-16T02:53:01.358Z,433.00
2023-04-16T02:54:01.394Z,434.00
2023-04-16T02:55:01.325Z,433.00
2023-04-16T02:56:01.340Z,433.00
2023-04-16T02:57:01.334Z,432.00
2023-04-16T02:58:01.419Z,433.00
2023-04-16T02:59:01.330Z,433.00
2023-04-16T03:00:01.434Z,434.00
2023-04-16T03:01:01.358Z,435.00
2023-04-16T03:02:01.379Z,436.00
2023-04-16T03:03:01.360Z,436.00
2023-04-16T03:04:01.371Z,434.00
2023-04-16T03:05:01.331Z,433.00
2023-04-16T03:06:01.320Z,436.00
2023-04-16T03:07:01.316Z,434.00
2023-04-16T03:08:01.438Z,433.00
2023-04-16T03:09:01.313Z,432.00
2023-04-16T03:10:01.316Z,429.00
2023-04-16T03:11:01.407Z,431.00
2023-04-16T03:12:01.354Z,430.00
2023-04-16T03:13:01.390Z,431.00
2023-04-16T03:14:01.468Z,430.00
2023-04-16T03:15:01.500Z,434.00
2023-04-16T03:16:01.668Z,433.00
2023-04-16T03:17:01.617Z,428.00
2023-04-16T03:18:01.697Z,428.00
2023-04-16T03:19:01.607Z,429.00
2023-04-16T03:20:01.670Z,427.00
2023-04-16T03:21:01.638Z,427.00
2023-04-16T03:22:01.592Z,430.00
2023-04-16T03:23:01.604Z,430.00
2023-04-16T03:24:01.624Z,430.00
2023-04-16T03:25:01.612Z,430.00
2023-04-16T03:26:01.595Z,430.00
2023-04-16T03:27:01.589Z,434.00
2023-04-16T03:28:01.595Z,432.00
2023-04-16T03:29:01.658Z,431.00
2023-04-16T03:30:01.558Z,430.00
2023-04-16T03:31:01.563Z,432.00
2023-04-16T03:32:01.544Z,432.00
2023-04-16T03:33:01.636Z,432.00
2023-04-16T03:34:01.535Z,431.00
2023-04-16T03:35:01.539Z,430.00
2023-04-16T03:36:01.588Z,428.00
2023-04-16T03:37:01.546Z,426.00
2023-04-16T03:38:01.526Z,426.00
2023-04-16T03:39:01.572Z,426.00
2023-04-16T03:40:01.627Z,425.00
2023-04-16T03:41:01.713Z,422.00
2023-04-16T03:42:01.810Z,421.00
2023-04-16T03:43:01.753Z,418.00
2023-04-16T03:44:01.770Z,422.00
2023-04-16T03:45:01.744Z,423.00
2023-04-16T03:46:01.857Z,424.00
2023-04-16T03:47:01.734Z,427.00
2023-04-16T03:48:01.732Z,428.00
2023-04-16T03:49:01.761Z,427.00
2023-04-16T03:50:01.742Z,426.00
2023-04-16T03:51:01.767Z,427.00
2023-04-16T03:52:01.784Z,427.00
2023-04-16T03:53:01.800Z,428.00
2023-04-16T03:54:01.897Z,429.00
2023-04-16T03:55:01.901Z,433.00
2023-04-16T03:56:01.975Z,434.00
2023-04-16T03:57:02.008Z,435.00
2023-04-16T03:58:02.088Z,434.00
2023-04-16T03:59:02.135Z,433.00
2023-04-16T04:00:02.175Z,434.00
2023-04-16T04:01:02.240Z,432.00
2023-04-16T04:02:02.330Z,431.00
2023-04-16T04:03:02.687Z,432.00
2023-04-16T04:04:02.492Z,434.00
2023-04-16T04:05:02.436Z,437.00
2023-04-16T04:06:02.332Z,435.00
2023-04-16T04:07:02.322Z,436.00
2023-04-16T04:08:02.349Z,438.00
2023-04-16T04:09:02.375Z,438.00
2023-04-16T04:10:02.342Z,440.00
2023-04-16T04:11:02.323Z,438.00
2023-04-16T04:12:02.348Z,436.00
2023-04-16T04:13:02.319Z,435.00
2023-04-16T04:14:02.332Z,433.00
2023-04-16T04:15:02.386Z,434.00
2023-04-16T04:16:02.471Z,433.00
2023-04-16T04:17:02.465Z,433.00
2023-04-16T04:18:02.607Z,432.00
2023-04-16T04:19:02.591Z,432.00
2023-04-16T04:20:02.526Z,431.00
2023-04-16T04:21:02.513Z,427.00
2023-04-16T04:22:02.524Z,425.00
2023-04-16T04:23:02.506Z,427.00
2023-04-16T04:24:02.854Z,426.00
2023-04-16T04:25:02.500Z,429.00
2023-04-16T04:26:02.575Z,429.00
2023-04-16T04:27:02.498Z,430.00
2023-04-16T04:28:02.506Z,427.00
2023-04-16T04:29:02.489Z,423.00
2023-04-16T04:30:02.532Z,423.00
2023-04-16T04:31:02.594Z,425.00
2023-04-16T04:32:02.729Z,425.00
2023-04-16T04:33:02.683Z,423.00
2023-04-16T04:34:02.741Z,421.00
2023-04-16T04:35:02.732Z,419.00
2023-04-16T04:36:02.759Z,418.00
2023-04-16T04:37:02.790Z,418.00
2023-04-16T04:38:02.871Z,417.00
2023-04-16T04:39:02.869Z,417.00
2023-04-16T04:40:02.900Z,419.00
2023-04-16T04:41:02.943Z,424.00
2023-04-16T04:42:02.983Z,427.00
2023-04-16T04:43:03.006Z,429.00
2023-04-16T04:44:03.077Z,426.00
2023-04-16T04:45:03.089Z,429.00
2023-04-16T04:46:03.195Z,430.00
2023-04-16T04:47:03.183Z,431.00
2023-04-16T04:48:03.248Z,431.00
2023-04-16T04:49:03.289Z,429.00
2023-04-16T04:50:03.340Z,429.00
2023-04-16T04:51:04.849Z,428.00
2023-04-16T04:52:03.429Z,425.00
2023-04-16T04:53:03.488Z,423.00
2023-04-16T04:54:03.565Z,422.00
2023-04-16T04:55:03.605Z,423.00
2023-04-16T04:56:12.455Z,424.00
2023-04-16T04:57:04.665Z,427.00
2023-04-16T04:58:03.726Z,428.00
2023-04-16T04:59:03.682Z,428.00
2023-04-16T05:00:03.627Z,425.00
2023-04-16T05:01:03.759Z,428.00
2023-04-16T05:02:03.721Z,429.00
2023-04-16T05:03:03.833Z,430.00
2023-04-16T05:04:03.647Z,431.00
2023-04-16T05:05:03.766Z,430.00
2023-04-16T05:06:03.653Z,430.00
2023-04-16T05:07:03.601Z,429.00
2023-04-16T05:08:03.604Z,429.00
2023-04-16T05:09:03.644Z,429.00
2023-04-16T05:10:03.617Z,429.00
2023-04-16T05:11:03.783Z,428.00
2023-04-16T05:12:03.705Z,427.00
2023-04-16T05:13:03.859Z,426.00
2023-04-16T05:14:03.846Z,427.00
2023-04-16T05:15:03.820Z,429.00
2023-04-16T05:16:03.973Z,429.00
2023-04-16T05:17:04.130Z,429.00
2023-04-16T05:18:03.989Z,429.00
2023-04-16T05:19:03.974Z,427.00
2023-04-16T05:20:04.000Z,426.00
2023-04-16T05:21:04.042Z,424.00
2023-04-16T05:22:04.076Z,424.00
2023-04-16T05:23:04.134Z,426.00
2023-04-16T05:24:04.181Z,428.00
2023-04-16T05:25:04.214Z,428.00
2023-04-16T05:26:04.238Z,428.00
2023-04-16T05:27:04.259Z,427.00
2023-04-16T05:28:04.285Z,425.00
2023-04-16T05:29:04.345Z,426.00
2023-04-16T05:30:04.322Z,424.00
2023-04-16T05:31:04.363Z,426.00
2023-04-16T05:32:04.349Z,424.00
2023-04-16T05:33:04.361Z,422.00
2023-04-16T05:34:04.395Z,424.00
2023-04-16T05:35:04.427Z,423.00
2023-04-16T05:36:04.438Z,424.00
2023-04-16T05:37:04.485Z,422.00
2023-04-16T05:38:04.561Z,423.00
2023-04-16T05:39:04.583Z,424.00
2023-04-16T05:40:04.568Z,427.00
2023-04-16T05:41:04.599Z,424.00
2023-04-16T05:42:04.620Z,423.00
2023-04-16T05:43:04.633Z,423.00
2023-04-16T05:44:05.159Z,423.00
2023-04-16T05:45:04.650Z,427.00
2023-04-16T05:46:04.682Z,428.00
2023-04-16T05:47:04.654Z,429.00
2023-04-16T05:48:04.703Z,429.00
2023-04-16T05:49:04.777Z,429.00
2023-04-16T05:50:04.688Z,430.00
2023-04-16T05:51:04.693Z,429.00
2023-04-16T05:52:04.723Z,428.00
2023-04-16T05:53:04.694Z,426.00
2023-04-16T05:54:04.696Z,426.00
2023-04-16T05:55:04.857Z,424.00
2023-04-16T05:56:04.709Z,423.00
2023-04-16T05:57:04.708Z,420.00
2023-04-16T05:58:04.704Z,421.00
2023-04-16T05:59:04.742Z,422.00
2023-04-16T06:00:04.868Z,423.00
2023-04-16T06:01:04.715Z,422.00
2023-04-16T06:02:04.736Z,423.00
2023-04-16T06:03:04.883Z,424.00
2023-04-16T06:04:04.899Z,426.00
2023-04-16T06:05:04.779Z,427.00
2023-04-16T06:06:04.930Z,427.00
2023-04-16T06:07:04.754Z,425.00
2023-04-16T06:08:04.773Z,425.00
2023-04-16T06:09:04.825Z,423.00
2023-04-16T06:10:04.987Z,423.00
2023-04-16T06:11:04.826Z,425.00
2023-04-16T06:12:04.839Z,426.00
2023-04-16T06:13:04.938Z,427.00
2023-04-16T06:14:04.837Z,426.00
2023-04-16T06:15:04.923Z,425.00
2023-04-16T06:16:04.908Z,423.00
2023-04-16T06:17:04.919Z,420.00
2023-04-16T06:18:04.996Z,418.00
2023-04-16T06:19:04.966Z,419.00
2023-04-16T06:20:04.982Z,420.00
2023-04-16T06:21:05.024Z,421.00
2023-04-16T06:22:05.019Z,422.00
2023-04-16T06:23:05.050Z,424.00
2023-04-16T06:24:05.070Z,422.00
2023-04-16T06:25:05.148Z,422.00
2023-04-16T06:26:05.177Z,423.00
2023-04-16T06:27:05.147Z,423.00
2023-04-16T06:28:05.164Z,424.00
2023-04-16T06:29:05.150Z,423.00
2023-04-16T06:30:06.866Z,423.00
2023-04-16T06:31:05.248Z,422.00
2023-04-16T06:32:05.174Z,422.00
2023-04-16T06:33:05.217Z,420.00
2023-04-16T06:34:05.315Z,422.00
2023-04-16T06:35:05.329Z,422.00
2023-04-16T06:36:05.409Z,422.00
2023-04-16T06:37:05.617Z,424.00
2023-04-16T06:38:05.507Z,423.00
2023-04-16T06:39:05.649Z,422.00
2023-04-16T06:40:05.656Z,421.00
2023-04-16T06:41:05.721Z,420.00
2023-04-16T06:42:05.766Z,420.00
2023-04-16T06:43:05.831Z,424.00
2023-04-16T06:44:05.867Z,422.00
2023-04-16T06:45:05.921Z,421.00
2023-04-16T06:46:05.927Z,421.00
2023-04-16T06:47:06.155Z,421.00
2023-04-16T06:48:06.019Z,421.00
2023-04-16T06:49:06.041Z,421.00
2023-04-16T06:50:06.099Z,416.00
2023-04-16T06:51:06.182Z,416.00
2023-04-16T06:52:06.246Z,419.00
2023-04-16T06:53:06.299Z,420.00
2023-04-16T06:54:06.350Z,422.00
2023-04-16T06:55:06.397Z,421.00
2023-04-16T06:56:06.444Z,419.00
2023-04-16T06:57:06.496Z,419.00
2023-04-16T06:58:06.545Z,421.00
2023-04-16T06:59:06.611Z,420.00
2023-04-16T07:00:06.665Z,417.00
2023-04-16T07:01:06.740Z,416.00
2023-04-16T07:02:06.847Z,417.00
2023-04-16T07:03:06.873Z,422.00
2023-04-16T07:04:06.985Z,424.00
2023-04-16T07:05:06.876Z,426.00
2023-04-16T07:06:06.896Z,424.00
2023-04-16T07:07:06.970Z,423.00
2023-04-16T07:08:06.985Z,422.00
2023-04-16T07:09:07.134Z,422.00
2023-04-16T07:10:07.124Z,424.00
2023-04-16T07:11:07.175Z,423.00
2023-04-16T07:12:07.256Z,424.00
2023-04-16T07:13:07.310Z,426.00
2023-04-16T07:14:07.382Z,428.00
2023-04-16T07:15:07.462Z,430.00
2023-04-16T07:16:07.514Z,430.00
2023-04-16T07:17:07.537Z,428.00
2023-04-16T07:18:07.699Z,426.00
2023-04-16T07:19:07.777Z,425.00
2023-04-16T07:20:07.710Z,423.00
2023-04-16T07:21:07.744Z,423.00
2023-04-16T07:22:07.815Z,425.00
2023-04-16T07:23:07.885Z,425.00
2023-04-16T07:24:07.922Z,423.00
2023-04-16T07:25:07.987Z,422.00
2023-04-16T07:26:08.026Z,421.00
2023-04-16T07:27:08.060Z,419.00
2023-04-16T07:28:08.132Z,419.00
2023-04-16T07:29:08.462Z,421.00
2023-04-16T07:30:08.685Z,420.00
2023-04-16T07:31:08.277Z,419.00
2023-04-16T07:32:08.386Z,420.00
2023-04-16T07:33:08.399Z,419.00
2023-04-16T07:34:08.371Z,420.00
2023-04-16T07:35:08.379Z,422.00
2023-04-16T07:36:08.382Z,422.00
2023-04-16T07:37:08.375Z,422.00
2023-04-16T07:38:08.378Z,423.00
2023-04-16T07:39:08.860Z,425.00
2023-04-16T07:40:08.377Z,425.00
2023-04-16T07:41:08.394Z,426.00
2023-04-16T07:42:08.399Z,424.00
2023-04-16T07:43:08.393Z,424.00
2023-04-16T07:44:08.423Z,426.00
2023-04-16T07:45:08.413Z,426.00
2023-04-16T07:46:08.538Z,425.00
2023-04-16T07:47:08.487Z,425.00
2023-04-16T07:48:08.542Z,424.00
2023-04-16T07:49:08.873Z,421.00
2023-04-16T07:50:08.660Z,420.00
2023-04-16T07:51:08.752Z,422.00
2023-04-16T07:52:08.776Z,422.00
2023-04-16T07:53:08.848Z,422.00
2023-04-16T07:54:08.927Z,422.00
2023-04-16T07:55:08.993Z,423.00
2023-04-16T07:56:09.069Z,423.00
2023-04-16T07:57:09.138Z,420.00
2023-04-16T07:58:09.189Z,418.00
2023-04-16T07:59:21.833Z,418.00
2023-04-16T08:00:10.267Z,419.00
2023-04-16T08:01:09.245Z,419.00
2023-04-16T08:02:09.294Z,419.00
2023-04-16T08:03:09.465Z,422.00
2023-04-16T08:04:09.457Z,423.00
2023-04-16T08:05:09.268Z,425.00
2023-04-16T08:06:09.228Z,425.00
2023-04-16T08:07:09.209Z,424.00
2023-04-16T08:08:09.206Z,424.00
2023-04-16T08:09:09.500Z,423.00
2023-04-16T08:10:09.266Z,423.00
2023-04-16T08:11:09.214Z,421.00
2023-04-16T08:12:09.271Z,420.00
2023-04-16T08:13:09.339Z,420.00
2023-04-16T08:14:09.343Z,420.00
2023-04-16T08:15:09.329Z,421.00
2023-04-16T08:16:09.427Z,422.00
2023-04-16T08:17:09.321Z,422.00
2023-04-16T08:18:09.466Z,422.00
2023-04-16T08:19:09.673Z,420.00
2023-04-16T08:20:09.591Z,419.00
2023-04-16T08:21:09.335Z,418.00
2023-04-16T08:22:09.335Z,416.00
2023-04-16T08:23:09.342Z,418.00
2023-04-16T08:24:09.352Z,420.00
2023-04-16T08:25:09.344Z,421.00
2023-04-16T08:26:09.351Z,422.00
2023-04-16T08:27:18.452Z,423.00
2023-04-16T08:28:09.352Z,420.00
2023-04-16T08:29:09.509Z,419.00
2023-04-16T08:30:09.385Z,418.00
2023-04-16T08:31:09.437Z,419.00
2023-04-16T08:32:09.388Z,421.00
2023-04-16T08:33:09.419Z,422.00
2023-04-16T08:34:09.393Z,423.00
2023-04-16T08:35:09.393Z,424.00
2023-04-16T08:36:09.422Z,422.00
2023-04-16T08:37:09.401Z,421.00
2023-04-16T08:38:09.391Z,422.00
2023-04-16T08:39:09.788Z,422.00
2023-04-16T08:40:09.517Z,422.00
2023-04-16T08:41:09.564Z,422.00
2023-04-16T08:42:09.637Z,421.00
2023-04-16T08:43:09.699Z,418.00
2023-04-16T08:44:09.755Z,419.00
2023-04-16T08:45:09.807Z,419.00
2023-04-16T08:46:09.913Z,423.00
2023-04-16T08:47:09.955Z,427.00
2023-04-16T08:48:10.014Z,427.00
2023-04-16T08:49:10.264Z,426.00
2023-04-16T08:50:10.138Z,425.00
2023-04-16T08:51:10.204Z,426.00
2023-04-16T08:52:10.261Z,427.00
2023-04-16T08:53:10.318Z,427.00
2023-04-16T08:54:10.325Z,423.00
2023-04-16T08:55:10.299Z,422.00
2023-04-16T08:56:10.315Z,421.00
2023-04-16T08:57:10.313Z,423.00
2023-04-16T08:58:10.286Z,422.00
2023-04-16T08:59:10.562Z,423.00
2023-04-16T09:00:10.288Z,424.00
2023-04-16T09:01:10.297Z,426.00
2023-04-16T09:02:10.353Z,428.00
2023-04-16T09:03:10.345Z,425.00
2023-04-16T09:04:10.351Z,425.00
2023-04-16T09:05:10.302Z,422.00
2023-04-16T09:06:10.364Z,421.00
2023-04-16T09:07:10.364Z,422.00
2023-04-16T09:08:10.405Z,422.00
2023-04-16T09:09:10.634Z,423.00
2023-04-16T09:10:10.474Z,424.00
2023-04-16T09:11:10.588Z,422.00
2023-04-16T09:12:10.500Z,421.00
2023-04-16T09:13:10.514Z,422.00
2023-04-16T09:14:10.537Z,421.00
2023-04-16T09:15:10.538Z,422.00
2023-04-16T09:16:10.559Z,422.00
2023-04-16T09:17:10.494Z,421.00
2023-04-16T09:18:10.491Z,423.00
2023-04-16T09:19:10.550Z,424.00
2023-04-16T09:20:10.450Z,424.00
2023-04-16T09:21:10.426Z,427.00
2023-04-16T09:22:10.466Z,426.00
2023-04-16T09:23:10.397Z,426.00
2023-04-16T09:24:10.421Z,425.00
2023-04-16T09:25:10.383Z,425.00
2023-04-16T09:26:10.361Z,426.00
2023-04-16T09:27:10.364Z,426.00
2023-04-16T09:28:10.346Z,426.00
2023-04-16T09:29:10.555Z,427.00
2023-04-16T09:30:10.323Z,427.00
2023-04-16T09:31:10.303Z,428.00
2023-04-16T09:32:10.343Z,427.00
2023-04-16T09:33:10.274Z,425.00
2023-04-16T09:34:10.274Z,423.00
2023-04-16T09:35:10.241Z,422.00
2023-04-16T09:36:10.238Z,422.00
2023-04-16T09:37:10.214Z,425.00
2023-04-16T09:38:10.189Z,425.00
2023-04-16T09:39:10.320Z,425.00
2023-04-16T09:40:10.153Z,424.00
2023-04-16T09:41:10.143Z,424.00
2023-04-16T09:42:10.144Z,425.00
2023-04-16T09:43:10.124Z,426.00
2023-04-16T09:44:10.120Z,425.00
2023-04-16T09:45:10.120Z,426.00
2023-04-16T09:46:10.209Z,425.00
2023-04-16T09:47:10.127Z,425.00
2023-04-16T09:48:10.089Z,425.00
2023-04-16T09:49:10.387Z,426.00
2023-04-16T09:50:12.499Z,424.00
2023-04-16T09:51:10.099Z,422.00
2023-04-16T09:52:10.143Z,423.00
2023-04-16T09:53:10.066Z,423.00
2023-04-16T09:54:10.073Z,421.00
2023-04-16T09:55:10.066Z,422.00
2023-04-16T09:56:10.038Z,421.00
2023-04-16T09:57:10.046Z,422.00
2023-04-16T09:58:10.032Z,423.00
2023-04-16T09:59:10.192Z,424.00
2023-04-16T10:00:10.011Z,425.00
2023-04-16T10:01:10.041Z,427.00
2023-04-16T10:02:15.025Z,431.00
2023-04-16T10:03:11.036Z,434.00
2023-04-16T10:04:10.323Z,435.00
2023-04-16T10:05:09.950Z,435.00
2023-04-16T10:06:09.934Z,435.00
2023-04-16T10:07:09.928Z,433.00
2023-04-16T10:08:09.911Z,432.00
2023-04-16T10:09:10.180Z,430.00
2023-04-16T10:10:09.891Z,427.00
2023-04-16T10:11:09.865Z,425.00
2023-04-16T10:12:09.885Z,425.00
2023-04-16T10:13:09.848Z,428.00
2023-04-16T10:14:09.823Z,427.00
2023-04-16T10:15:09.807Z,426.00
2023-04-16T10:16:09.796Z,427.00
2023-04-16T10:17:10.012Z,428.00
2023-04-16T10:18:09.836Z,427.00
2023-04-16T10:19:10.004Z,424.00
2023-04-16T10:20:09.730Z,426.00
2023-04-16T10:21:09.726Z,424.00
2023-04-16T10:22:09.790Z,424.00
2023-04-16T10:23:09.703Z,425.00
2023-04-16T10:24:09.705Z,424.00
2023-04-16T10:25:09.673Z,425.00
2023-04-16T10:26:09.645Z,424.00
2023-04-16T10:27:09.690Z,425.00
2023-04-16T10:28:09.639Z,425.00
2023-04-16T10:29:09.993Z,426.00
2023-04-16T10:30:09.609Z,428.00
2023-04-16T10:31:09.739Z,431.00
2023-04-16T10:32:09.605Z,428.00
2023-04-16T10:33:09.612Z,429.00
2023-04-16T10:34:09.555Z,428.00
2023-04-16T10:35:09.524Z,430.00
2023-04-16T10:36:09.541Z,430.00
2023-04-16T10:37:09.493Z,431.00
2023-04-16T10:38:09.457Z,433.00
2023-04-16T10:39:09.572Z,433.00
2023-04-16T10:40:09.425Z,433.00
2023-04-16T10:41:09.430Z,432.00
2023-04-16T10:42:09.428Z,430.00
2023-04-16T10:43:09.398Z,428.00
2023-04-16T10:44:09.379Z,428.00
2023-04-16T10:45:09.395Z,428.00
2023-04-16T10:46:09.358Z,431.00
2023-04-16T10:47:09.336Z,434.00
2023-04-16T10:48:09.301Z,433.00
2023-04-16T10:49:09.566Z,434.00
2023-04-16T10:50:09.269Z,433.00
2023-04-16T10:51:09.271Z,431.00
2023-04-16T10:52:09.274Z,432.00
2023-04-16T10:53:09.237Z,434.00
2023-04-16T10:54:09.247Z,435.00
2023-04-16T10:55:09.208Z,434.00
2023-04-16T10:56:09.217Z,435.00
2023-04-16T10:57:09.296Z,435.00
2023-04-16T10:58:09.145Z,437.00
2023-04-16T10:59:09.378Z,436.00
2023-04-16T11:00:09.119Z,436.00
2023-04-16T11:01:09.108Z,437.00
2023-04-16T11:02:09.189Z,436.00
2023-04-16T11:03:09.210Z,434.00
2023-04-16T11:04:09.138Z,432.00
2023-04-16T11:05:09.055Z,431.00
2023-04-16T11:06:09.029Z,432.00
2023-04-16T11:07:09.011Z,432.00
2023-04-16T11:08:09.060Z,433.00
2023-04-16T11:09:09.042Z,431.00
2023-04-16T11:10:09.026Z,429.00
2023-04-16T11:11:08.960Z,429.00
2023-04-16T11:12:08.933Z,427.00
2023-04-16T11:13:08.930Z,427.00
2023-04-16T11:14:08.899Z,425.00
2023-04-16T11:15:08.885Z,425.00
2023-04-16T11:16:08.892Z,426.00
2023-04-16T11:17:08.829Z,426.00
2023-04-16T11:18:08.909Z,429.00
2023-04-16T11:19:09.013Z,430.00
2023-04-16T11:20:19.703Z,429.00
2023-04-16T11:21:09.758Z,428.00
2023-04-16T11:22:08.804Z,428.00
2023-04-16T11:23:08.762Z,429.00
2023-04-16T11:24:08.710Z,428.00
2023-04-16T11:25:08.692Z,428.00
2023-04-16T11:26:08.678Z,430.00
2023-04-16T11:27:08.648Z,429.00
2023-04-16T11:28:08.638Z,428.00
2023-04-16T11:29:08.964Z,426.00
2023-04-16T11:30:08.574Z,429.00
2023-04-16T11:31:08.722Z,431.00
2023-04-16T11:32:08.542Z,434.00
2023-04-16T11:33:08.620Z,433.00
2023-04-16T11:34:08.510Z,431.00
2023-04-16T11:35:08.463Z,433.00
2023-04-16T11:36:08.444Z,432.00
2023-04-16T11:37:08.427Z,434.00
2023-04-16T11:38:08.427Z,433.00
2023-04-16T11:39:08.483Z,432.00
2023-04-16T11:40:08.358Z,433.00
2023-04-16T11:41:08.339Z,433.00
2023-04-16T11:42:08.334Z,432.00
2023-04-16T11:43:08.304Z,430.00
2023-04-16T11:44:08.280Z,426.00
2023-04-16T11:45:08.272Z,427.00
2023-04-16T11:46:23.973Z,428.00
2023-04-16T11:47:09.274Z,425.00
2023-04-16T11:48:09.913Z,426.00
2023-04-16T11:49:08.344Z,426.00
2023-04-16T11:50:08.164Z,425.00
2023-04-16T11:51:08.145Z,422.00
2023-04-16T11:52:08.110Z,421.00
2023-04-16T11:53:08.522Z,420.00
2023-04-16T11:54:09.113Z,422.00
2023-04-16T11:55:08.065Z,422.00
2023-04-16T11:56:08.040Z,422.00
2023-04-16T11:57:08.025Z,424.00
2023-04-16T11:58:08.019Z,424.00
2023-04-16T11:59:08.270Z,425.00
2023-04-16T12:00:09.982Z,427.00
2023-04-16T12:01:08.093Z,428.00
2023-04-16T12:02:08.228Z,429.00
2023-04-16T12:03:08.237Z,429.00
2023-04-16T12:04:08.330Z,427.00
2023-04-16T12:05:08.079Z,427.00
2023-04-16T12:06:08.051Z,423.00
2023-04-16T12:07:08.007Z,422.00
2023-04-16T12:08:08.020Z,421.00
2023-04-16T12:09:08.008Z,425.00
2023-04-16T12:10:07.940Z,423.00
2023-04-16T12:11:07.905Z,422.00
2023-04-16T12:12:07.911Z,420.00
2023-04-16T12:13:07.908Z,421.00
2023-04-16T12:14:07.862Z,419.00
2023-04-16T12:15:07.835Z,421.00
2023-04-16T12:16:07.841Z,422.00
2023-04-16T12:17:07.975Z,424.00
2023-04-16T12:18:07.974Z,427.00
2023-04-16T12:19:07.878Z,428.00
2023-04-16T12:20:07.766Z,426.00
2023-04-16T12:21:07.821Z,426.00
2023-04-16T12:22:07.868Z,427.00
2023-04-16T12:23:07.729Z,427.00
2023-04-16T12:24:07.705Z,426.00
2023-04-16T12:25:07.683Z,425.00
2023-04-16T12:26:07.691Z,423.00
2023-04-16T12:27:07.645Z,424.00
2023-04-16T12:28:07.673Z,424.00
2023-04-16T12:29:07.762Z,423.00